Time;durP1;ratioP1;P1;durP2;ratioP2;P2;SDS_P1;SDS_P2;PMS_P1;PMS_P2;Temp;Humidity;BMP_temperature;BMP_pressure;BME280_temperature;BME280_humidity;BME280_pressure;Samples;Min_cycle;Max_cycle;Signal;HPM_P1;HPM_P2
2024/01/17 00:02:06;;;;;;;29.37;16.60;;;-6.00;90.80;;;;;;5003350;28;20500;-66
2024/01/17 00:04:33;;;;;;;22.00;10.97;;;-6.20;91.30;;;;;;5003616;28;20984;-66
2024/01/17 00:06:59;;;;;;;25.53;11.80;;;-6.10;91.60;;;;;;5012681;28;20940;-66
2024/01/17 00:09:26;;;;;;;56.77;13.03;;;-6.10;91.60;;;;;;5010763;28;20546;-66
2024/01/17 00:11:55;;;;;;;29.23;12.90;;;-6.00;91.90;;;;;;5007423;28;20485;-66
2024/01/17 00:14:21;;;;;;;27.80;11.40;;;-5.80;92.10;;;;;;4985049;28;20921;-66
2024/01/17 00:16:48;;;;;;;33.17;12.10;;;-5.60;92.20;;;;;;4997674;28;20488;-64
2024/01/17 00:19:15;;;;;;;30.43;14.83;;;-5.50;92.10;;;;;;5009280;28;20499;-64
2024/01/17 00:21:42;;;;;;;31.97;14.13;;;-5.30;92.10;;;;;;4976820;28;20658;-64
2024/01/17 00:24:10;;;;;;;33.63;14.37;;;-5.20;92.00;;;;;;4994216;28;20473;-64
2024/01/17 00:26:37;;;;;;;34.97;15.20;;;-5.20;91.80;;;;;;5004277;28;20494;-64
2024/01/17 00:29:05;;;;;;;34.90;14.83;;;-5.10;91.60;;;;;;5011019;28;20547;-64
2024/01/17 00:31:32;;;;;;;33.53;16.37;;;-5.10;91.60;;;;;;5009839;28;20582;-64
2024/01/17 00:34:00;;;;;;;43.77;16.10;;;-5.00;91.20;;;;;;5008789;28;20498;-64
2024/01/17 00:36:26;;;;;;;45.33;17.67;;;-5.10;91.10;;;;;;5010021;28;20485;-64
2024/01/17 00:38:53;;;;;;;26.33;16.63;;;-5.30;91.30;;;;;;5008707;28;20480;-65
2024/01/17 00:41:20;;;;;;;41.40;15.67;;;-5.40;91.60;;;;;;5009696;28;20484;-64
2024/01/17 00:43:47;;;;;;;31.93;15.67;;;-5.50;91.60;;;;;;5011829;28;20481;-64
2024/01/17 00:46:16;;;;;;;33.70;14.70;;;-5.50;91.70;;;;;;4981865;28;20515;-63
2024/01/17 00:48:43;;;;;;;23.90;14.20;;;-5.50;91.90;;;;;;5000647;28;20982;-64
2024/01/17 00:51:10;;;;;;;30.70;15.50;;;-5.40;92.10;;;;;;5011064;28;20550;-65
2024/01/17 00:53:37;;;;;;;28.57;14.40;;;-5.30;92.20;;;;;;5008105;28;20483;-64
2024/01/17 00:56:04;;;;;;;34.17;15.77;;;-5.20;92.00;;;;;;4997908;28;20484;-65
2024/01/17 00:58:31;;;;;;;31.20;16.70;;;-5.20;91.80;;;;;;5019068;28;20566;-65
2024/01/17 01:00:58;;;;;;;39.30;16.33;;;-5.20;91.80;;;;;;5017796;28;20924;-64
2024/01/17 01:03:26;;;;;;;34.67;14.67;;;-5.00;92.30;;;;;;5003502;28;20488;-64
2024/01/17 01:05:53;;;;;;;28.73;14.73;;;-4.90;92.40;;;;;;5002644;28;20520;-64
2024/01/17 01:08:20;;;;;;;46.87;14.80;;;-4.70;92.40;;;;;;5013420;28;20821;-63
2024/01/17 01:10:47;;;;;;;27.13;15.83;;;-4.60;92.70;;;;;;5026556;28;20467;-64
2024/01/17 01:13:14;;;;;;;21.17;12.43;;;-4.50;93.00;;;;;;5022764;28;20476;-64
2024/01/17 01:15:40;;;;;;;56.10;15.87;;;-4.40;93.00;;;;;;4992869;28;20475;-64
2024/01/17 01:18:08;;;;;;;28.20;14.70;;;-4.40;92.90;;;;;;5027192;28;20534;-66
2024/01/17 01:20:36;;;;;;;30.63;14.70;;;-4.30;93.00;;;;;;4999912;28;20500;-66
2024/01/17 01:23:03;;;;;;;33.37;14.20;;;-4.20;93.00;;;;;;4998732;28;20560;-65
2024/01/17 01:25:30;;;;;;;34.87;17.40;;;-4.10;93.10;;;;;;5012628;28;20571;-66
2024/01/17 01:27:57;;;;;;;31.47;17.27;;;-4.10;92.90;;;;;;5025225;28;20480;-66
2024/01/17 01:30:24;;;;;;;40.70;17.07;;;-4.10;92.60;;;;;;5023168;28;20480;-66
2024/01/17 01:32:51;;;;;;;41.80;18.63;;;-4.10;92.40;;;;;;4989646;28;20484;-66
2024/01/17 01:35:17;;;;;;;39.67;18.03;;;-4.30;92.10;;;;;;5022322;28;20870;-66
2024/01/17 01:37:46;;;;;;;35.00;15.87;;;-4.50;92.20;;;;;;5022766;28;20481;-66
2024/01/17 01:40:13;;;;;;;28.03;15.70;;;-4.50;92.30;;;;;;5023396;28;21142;-66
2024/01/17 01:42:43;;;;;;;55.33;16.70;;;-4.40;92.40;;;;;;5016330;28;20487;-66
2024/01/17 01:45:11;;;;;;;36.67;17.37;;;-4.40;92.40;;;;;;5022175;28;20480;-66
2024/01/17 01:47:38;;;;;;;39.37;17.87;;;-4.40;92.40;;;;;;4993709;28;20523;-66
2024/01/17 01:50:07;;;;;;;39.70;16.23;;;-4.50;92.30;;;;;;5025745;28;20488;-66
2024/01/17 01:52:36;;;;;;;30.57;15.47;;;-4.50;92.60;;;;;;5024705;28;20512;-65
2024/01/17 01:55:07;;;;;;;39.27;16.90;;;-4.50;92.70;;;;;;5003818;28;20492;-66
2024/01/17 01:57:36;;;;;;;27.77;15.37;;;-4.40;92.70;;;;;;5025572;28;20510;-66
2024/01/17 02:00:04;;;;;;;33.70;16.90;;;-4.30;92.60;;;;;;5020146;28;21014;-66
2024/01/17 02:02:32;;;;;;;39.93;17.17;;;-4.20;92.70;;;;;;5022441;28;20484;-65
2024/01/17 02:05:02;;;;;;;33.50;16.20;;;-4.20;92.60;;;;;;5018452;28;20747;-65
2024/01/17 02:07:33;;;;;;;35.83;16.10;;;-4.20;92.70;;;;;;4986645;28;20501;-66
2024/01/17 02:10:01;;;;;;;31.83;15.80;;;-4.00;93.00;;;;;;4989753;28;20471;-66
2024/01/17 02:12:29;;;;;;;37.23;18.57;;;-3.90;92.90;;;;;;5002566;28;20570;-66
2024/01/17 02:14:56;;;;;;;35.83;17.93;;;-4.00;92.60;;;;;;5017976;28;20994;-66
2024/01/17 02:17:23;;;;;;;48.47;18.37;;;-3.90;92.90;;;;;;5027330;28;20785;-65
2024/01/17 02:19:50;;;;;;;45.53;17.90;;;-3.90;92.90;;;;;;5028749;28;20538;-66
2024/01/17 02:22:17;;;;;;;31.03;17.10;;;-3.80;92.90;;;;;;5010043;28;20485;-66
2024/01/17 02:24:46;;;;;;;29.80;16.30;;;-3.90;93.00;;;;;;5027220;28;20488;-66
2024/01/17 02:27:12;;;;;;;40.40;18.97;;;-3.90;93.10;;;;;;5025179;28;20488;-64
2024/01/17 02:29:39;;;;;;;31.97;16.57;;;-3.90;93.20;;;;;;5035045;28;20488;-64
2024/01/17 02:32:07;;;;;;;34.67;17.83;;;-3.80;93.40;;;;;;5027494;28;20487;-64
2024/01/17 02:34:34;;;;;;;29.50;16.97;;;-3.70;93.60;;;;;;5025466;28;20491;-64
2024/01/17 02:37:01;;;;;;;27.07;16.20;;;-3.70;93.60;;;;;;5027087;28;20468;-64
2024/01/17 02:39:28;;;;;;;28.67;17.70;;;-3.60;93.50;;;;;;5006085;28;20472;-66
2024/01/17 02:41:56;;;;;;;35.50;18.10;;;-3.50;93.60;;;;;;5016394;28;20492;-66
2024/01/17 02:44:23;;;;;;;25.67;14.77;;;;;;;;;;5025346;28;20895;-66
2024/01/17 02:46:50;;;;;;;45.27;17.97;;;-3.30;94.10;;;;;;5027178;28;20492;-65
2024/01/17 02:49:19;;;;;;;28.77;16.67;;;-3.20;94.20;;;;;;5005632;28;20902;-66
2024/01/17 02:51:46;;;;;;;34.73;16.53;;;-3.10;94.30;;;;;;5015957;28;20480;-66
2024/01/17 02:54:13;;;;;;;30.33;16.33;;;-3.00;94.40;;;;;;5023822;28;20476;-66
2024/01/17 02:56:40;;;;;;;52.20;17.97;;;-2.90;94.30;;;;;;4998706;28;20481;-66
2024/01/17 02:59:08;;;;;;;42.50;17.40;;;-2.80;94.30;;;;;;5027875;28;20481;-66
2024/01/17 03:01:35;;;;;;;33.83;17.07;;;-2.80;94.20;;;;;;5021046;28;20569;-66
2024/01/17 03:04:02;;;;;;;32.93;16.30;;;-2.70;94.20;;;;;;5024558;28;20527;-66
2024/01/17 03:06:29;;;;;;;28.47;16.17;;;-2.60;94.40;;;;;;5021739;28;20516;-66
2024/01/17 03:08:56;;;;;;;35.10;15.20;;;-2.60;94.40;;;;;;5031052;28;20512;-66
2024/01/17 03:11:23;;;;;;;31.47;15.40;;;-2.50;94.60;;;;;;5020760;28;20480;-66
2024/01/17 03:13:50;;;;;;;29.53;14.57;;;-2.40;94.60;;;;;;5030759;28;20484;-66
2024/01/17 03:16:19;;;;;;;25.63;15.07;;;-2.40;94.60;;;;;;5000589;28;20912;-66
2024/01/17 03:18:46;;;;;;;34.60;17.50;;;-2.40;94.50;;;;;;4997058;28;20491;-66
2024/01/17 03:21:14;;;;;;;41.83;16.33;;;-2.30;94.70;;;;;;4994321;28;20485;-66
2024/01/17 03:23:41;;;;;;;37.47;17.30;;;-2.20;94.60;;;;;;4975019;28;20488;-66
2024/01/17 03:26:08;;;;;;;40.70;17.40;;;-2.10;94.70;;;;;;5017765;28;20546;-66
2024/01/17 03:28:35;;;;;;;37.53;17.60;;;-2.10;94.70;;;;;;4992463;28;20942;-66
2024/01/17 03:31:02;;;;;;;34.37;17.07;;;-2.00;94.80;;;;;;5026554;28;20910;-66
2024/01/17 03:33:30;;;;;;;30.20;14.90;;;-2.00;94.80;;;;;;5026864;28;20569;-66
2024/01/17 03:35:57;;;;;;;21.23;12.90;;;-1.90;94.90;;;;;;4988963;28;20494;-66
2024/01/17 03:38:25;;;;;;;27.23;12.83;;;-1.90;95.00;;;;;;4979835;28;20545;-66
2024/01/17 03:40:55;;;;;;;25.03;15.33;;;-1.80;95.10;;;;;;5005093;28;20503;-66
2024/01/17 03:43:22;;;;;;;21.67;15.33;;;-1.80;95.10;;;;;;4967976;28;20492;-66
2024/01/17 03:45:51;;;;;;;26.07;15.20;;;-1.70;95.10;;;;;;4980340;28;20484;-66
2024/01/17 03:48:18;;;;;;;29.53;13.00;;;-1.70;95.00;;;;;;5016164;28;20491;-64
2024/01/17 03:50:46;;;;;;;28.47;17.20;;;-1.70;95.00;;;;;;5022047;28;20545;-66
2024/01/17 03:53:13;;;;;;;25.97;13.10;;;;;;;;;;5027306;28;20487;-64
2024/01/17 03:55:40;;;;;;;35.33;14.70;;;-1.50;95.30;;;;;;5028570;28;20574;-65
2024/01/17 03:58:07;;;;;;;26.90;13.73;;;-1.50;95.40;;;;;;5005169;28;20896;-64
2024/01/17 04:00:34;;;;;;;42.60;15.87;;;-1.50;95.50;;;;;;5013281;28;20485;-65
2024/01/17 04:03:01;;;;;;;25.03;13.90;;;-1.40;95.50;;;;;;5031328;28;20855;-64
2024/01/17 04:05:28;;;;;;;22.13;12.47;;;-1.50;95.40;;;;;;4994687;28;20488;-63
2024/01/17 04:07:56;;;;;;;32.63;13.50;;;-1.50;95.80;;;;;;5023359;28;22625;-64
2024/01/17 04:10:23;;;;;;;27.53;13.97;;;-1.50;95.80;;;;;;5021629;28;20538;-63
2024/01/17 04:12:50;;;;;;;24.60;14.67;;;-1.50;95.80;;;;;;5016747;28;20488;-64
2024/01/17 04:15:17;;;;;;;21.00;13.13;;;-1.40;95.90;;;;;;5023052;28;20541;-63
2024/01/17 04:17:43;;;;;;;25.20;14.90;;;-1.30;96.00;;;;;;5005758;28;20860;-64
2024/01/17 04:20:11;;;;;;;28.37;13.70;;;-1.30;96.00;;;;;;5024628;28;20534;-64
2024/01/17 04:22:38;;;;;;;28.50;14.43;;;-1.20;96.10;;;;;;5018487;28;20833;-64
2024/01/17 04:25:07;;;;;;;24.00;15.27;;;-1.10;96.10;;;;;;5006220;28;21366;-63
2024/01/17 04:27:34;;;;;;;31.50;15.90;;;-1.10;96.00;;;;;;5013841;28;20974;-64
2024/01/17 04:30:01;;;;;;;27.53;13.43;;;-0.90;96.30;;;;;;5013497;28;20476;-64
2024/01/17 04:32:33;;;;;;;31.77;16.20;;;-0.90;96.30;;;;;;5015323;28;20481;-64
2024/01/17 04:35:00;;;;;;;45.87;20.50;;;-0.80;96.40;;;;;;5019774;28;20557;-64
2024/01/17 04:37:27;;;;;;;33.13;16.77;;;-0.80;96.30;;;;;;5000126;28;20896;-64
2024/01/17 04:39:54;;;;;;;37.20;17.77;;;-0.70;96.30;;;;;;5020454;28;20483;-64
2024/01/17 04:42:22;;;;;;;39.17;17.00;;;-0.70;96.50;;;;;;5013827;28;20484;-64
2024/01/17 04:44:49;;;;;;;43.27;22.50;;;-0.70;96.40;;;;;;4997895;28;20558;-63
2024/01/17 04:47:16;;;;;;;41.40;19.30;;;-0.60;96.50;;;;;;4990122;28;20507;-64
2024/01/17 04:49:44;;;;;;;33.33;19.60;;;-0.50;96.70;;;;;;5021917;28;20469;-65
2024/01/17 04:52:15;;;;;;;28.63;17.23;;;-0.50;96.80;;;;;;5021513;28;20466;-65
2024/01/17 04:54:43;;;;;;;22.93;13.90;;;-0.40;97.00;;;;;;5024977;28;20993;-65
2024/01/17 04:57:10;;;;;;;21.30;14.13;;;-0.30;97.10;;;;;;5021056;28;20491;-65
2024/01/17 04:59:38;;;;;;;30.37;15.83;;;-0.30;97.20;;;;;;5026791;28;20495;-63
2024/01/17 05:02:05;;;;;;;26.10;15.00;;;-0.20;97.70;;;;;;5020237;28;20497;-63
2024/01/17 05:04:32;;;;;;;36.23;17.80;;;-0.10;97.80;;;;;;5028594;28;20495;-63
2024/01/17 05:06:59;;;;;;;31.80;16.00;;;-0.10;98.00;;;;;;5019537;28;20484;-62
2024/01/17 05:09:26;;;;;;;33.40;16.10;;;0.00;98.20;;;;;;5022091;28;20480;-63
2024/01/17 05:11:53;;;;;;;35.13;17.93;;;0.00;98.20;;;;;;5017833;28;20476;-63
2024/01/17 05:14:20;;;;;;;33.70;19.40;;;0.10;98.30;;;;;;5001579;28;20480;-62
2024/01/17 05:16:48;;;;;;;38.83;18.00;;;0.20;98.50;;;;;;5018922;28;20485;-63
2024/01/17 05:19:17;;;;;;;38.07;17.20;;;0.30;98.60;;;;;;5017595;28;20567;-63
2024/01/17 05:21:44;;;;;;;32.10;17.43;;;0.40;98.50;;;;;;5018795;28;20550;-63
2024/01/17 05:24:11;;;;;;;33.90;16.90;;;;;;;;;;5027989;28;20538;-62
2024/01/17 05:26:38;;;;;;;31.07;17.67;;;0.40;99.10;;;;;;4995275;28;20555;-61
2024/01/17 05:29:06;;;;;;;31.90;17.93;;;0.40;99.20;;;;;;5004810;28;20491;-61
2024/01/17 05:31:32;;;;;;;33.80;16.90;;;0.60;99.60;;;;;;5022408;28;20492;-62
2024/01/17 05:34:01;;;;;;;26.30;17.60;;;0.60;99.50;;;;;;5021486;28;20487;-62
2024/01/17 05:36:28;;;;;;;36.23;20.00;;;;;;;;;;5020130;28;20491;-61
2024/01/17 05:38:55;;;;;;;34.30;17.50;;;0.80;99.80;;;;;;5027597;28;20483;-62
2024/01/17 05:41:22;;;;;;;30.47;17.70;;;0.80;99.90;;;;;;5016899;28;20533;-62
2024/01/17 05:43:48;;;;;;;41.17;18.87;;;0.90;99.90;;;;;;5017557;28;20492;-62
2024/01/17 05:46:15;;;;;;;43.80;18.83;;;0.90;99.90;;;;;;5033712;28;20491;-63
2024/01/17 05:48:42;;;;;;;32.13;17.70;;;1.00;99.90;;;;;;5031992;28;21168;-62
2024/01/17 05:51:12;;;;;;;34.43;17.37;;;1.10;99.90;;;;;;5023166;28;20484;-63
2024/01/17 05:53:39;;;;;;;46.93;16.90;;;1.10;99.90;;;;;;5030371;28;20480;-63
2024/01/17 05:56:06;;;;;;;27.50;15.70;;;1.20;99.90;;;;;;5023749;28;20479;-63
2024/01/17 05:58:34;;;;;;;30.50;17.30;;;1.20;99.90;;;;;;5023981;28;20480;-63
2024/01/17 06:01:00;;;;;;;34.90;18.50;;;1.30;99.90;;;;;;5027028;28;20476;-63
2024/01/17 06:03:27;;;;;;;33.03;18.57;;;1.30;99.90;;;;;;4999622;28;20483;-63
2024/01/17 06:05:54;;;;;;;19.57;15.53;;;1.30;99.90;;;;;;5025631;28;20488;-64
2024/01/17 06:08:22;;;;;;;31.63;16.70;;;1.40;99.90;;;;;;5025206;28;20492;-63
2024/01/17 06:10:50;;;;;;;26.77;16.87;;;1.40;99.90;;;;;;5025962;28;20488;-64
2024/01/17 06:13:17;;;;;;;37.83;17.63;;;1.50;99.90;;;;;;5029248;28;20476;-64
2024/01/17 06:15:44;;;;;;;31.70;18.53;;;;;;;;;;5022589;28;20492;-64
2024/01/17 06:18:12;;;;;;;49.93;17.43;;;1.60;99.90;;;;;;5008214;28;20537;-64
2024/01/17 06:20:39;;;;;;;29.73;18.37;;;1.60;99.90;;;;;;5021448;28;20480;-64
2024/01/17 06:23:06;;;;;;;27.77;17.40;;;1.60;99.90;;;;;;5022228;28;20488;-64
2024/01/17 06:25:35;;;;;;;33.63;15.83;;;1.60;99.90;;;;;;5028325;28;20476;-64
2024/01/17 06:28:01;;;;;;;53.30;18.73;;;1.70;99.90;;;;;;5011482;28;20491;-65
2024/01/17 06:30:31;;;;;;;29.80;18.53;;;1.70;99.90;;;;;;5021652;28;21045;-64
2024/01/17 06:32:58;;;;;;;28.93;18.77;;;1.80;99.90;;;;;;5022685;28;20549;-64
2024/01/17 06:35:25;;;;;;;31.37;21.10;;;1.90;99.90;;;;;;5026142;28;20479;-65
2024/01/17 06:37:52;;;;;;;28.53;16.97;;;1.90;99.90;;;;;;5021717;28;20481;-65
2024/01/17 06:40:18;;;;;;;31.27;18.80;;;2.00;99.90;;;;;;5027716;28;20594;-64
2024/01/17 06:42:47;;;;;;;30.17;17.63;;;2.00;99.90;;;;;;5013685;28;20492;-65
2024/01/17 06:45:14;;;;;;;30.40;19.40;;;2.00;99.90;;;;;;5018607;28;20503;-65
2024/01/17 06:47:40;;;;;;;38.00;19.90;;;2.10;99.90;;;;;;5014540;28;20527;-65
2024/01/17 06:50:08;;;;;;;32.80;19.33;;;2.10;99.90;;;;;;4980706;28;20488;-65
2024/01/17 06:52:35;;;;;;;41.53;18.67;;;2.10;99.90;;;;;;5022888;28;20930;-65
2024/01/17 06:55:02;;;;;;;32.07;19.20;;;2.10;99.90;;;;;;5023978;28;20502;-65
2024/01/17 06:57:29;;;;;;;38.27;21.30;;;2.20;99.90;;;;;;4999134;28;20487;-65
2024/01/17 06:59:58;;;;;;;40.87;20.27;;;2.20;99.90;;;;;;5017602;28;20484;-65
2024/01/17 07:02:24;;;;;;;27.70;15.60;;;2.20;99.90;;;;;;5018030;28;20476;-65
2024/01/17 07:04:51;;;;;;;25.93;15.70;;;2.30;99.90;;;;;;5020053;28;20861;-66
2024/01/17 07:07:18;;;;;;;26.57;17.00;;;2.40;99.90;;;;;;5021506;28;20473;-66
2024/01/17 07:09:45;;;;;;;25.57;16.93;;;2.40;99.90;;;;;;5013964;28;20892;-66
2024/01/17 07:12:12;;;;;;;34.20;19.47;;;2.40;99.90;;;;;;5005716;28;20512;-67
2024/01/17 07:14:39;;;;;;;29.17;19.90;;;2.40;99.90;;;;;;5006070;28;20481;-66
2024/01/17 07:17:08;;;;;;;30.83;20.23;;;2.40;99.90;;;;;;5030812;28;20906;-66
2024/01/17 07:19:36;;;;;;;27.90;17.60;;;2.50;99.90;;;;;;4995259;28;20535;-66
2024/01/17 07:22:03;;;;;;;34.13;20.63;;;2.50;99.90;;;;;;5028459;28;20472;-66
2024/01/17 07:24:30;;;;;;;28.20;18.53;;;2.60;99.90;;;;;;5022177;28;20526;-65
2024/01/17 07:26:58;;;;;;;51.13;20.70;;;2.70;99.90;;;;;;4999212;28;20901;-66
2024/01/17 07:29:25;;;;;;;27.40;18.77;;;2.70;99.90;;;;;;5011316;28;20489;-65
2024/01/17 07:31:51;;;;;;;84.13;45.57;;;2.80;99.90;;;;;;5008497;28;20484;-65
2024/01/17 07:34:20;;;;;;;52.80;22.23;;;2.70;99.90;;;;;;5009655;28;20500;-65
2024/01/17 07:36:47;;;;;;;31.87;19.03;;;2.70;99.90;;;;;;5026051;28;20480;-65
2024/01/17 07:39:14;;;;;;;30.20;18.93;;;2.80;99.90;;;;;;5027081;28;20480;-65
2024/01/17 07:41:44;;;;;;;35.93;18.57;;;2.80;99.90;;;;;;5022155;28;20820;-65
2024/01/17 07:44:11;;;;;;;29.53;18.90;;;2.70;99.90;;;;;;4996585;28;20476;-64
2024/01/17 07:46:38;;;;;;;34.97;18.73;;;2.80;99.90;;;;;;5025073;28;20479;-65
2024/01/17 07:49:05;;;;;;;34.60;18.70;;;2.80;99.90;;;;;;4978532;28;20493;-65
2024/01/17 07:51:34;;;;;;;25.83;16.67;;;2.90;99.90;;;;;;5010347;28;20850;-65
2024/01/17 07:54:02;;;;;;;32.00;18.07;;;2.90;99.90;;;;;;5005090;28;20595;-64
2024/01/17 07:56:29;;;;;;;60.00;22.43;;;3.00;99.90;;;;;;5011139;28;21012;-64
2024/01/17 07:58:56;;;;;;;36.80;19.80;;;3.00;99.90;;;;;;5005259;28;20536;-64
2024/01/17 08:01:23;;;;;;;55.30;20.50;;;3.10;99.90;;;;;;4994256;28;20885;-64
2024/01/17 08:03:50;;;;;;;33.50;19.17;;;3.10;99.90;;;;;;4994569;28;20580;-65
2024/01/17 08:06:17;;;;;;;36.73;18.93;;;3.10;99.90;;;;;;5011699;28;20546;-64
2024/01/17 08:08:45;;;;;;;34.03;14.37;;;3.00;99.90;;;;;;5002886;28;20901;-64
2024/01/17 08:11:12;;;;;;;34.53;20.20;;;2.90;99.90;;;;;;5010655;28;20485;-65
2024/01/17 08:13:40;;;;;;;33.00;17.40;;;2.90;99.90;;;;;;5016435;28;20559;-66
2024/01/17 08:16:07;;;;;;;34.37;20.83;;;2.90;99.90;;;;;;5009832;28;20636;-66
2024/01/17 08:18:34;;;;;;;28.57;18.87;;;3.00;99.90;;;;;;5010305;28;20492;-66
2024/01/17 08:21:01;;;;;;;30.17;18.60;;;2.90;99.90;;;;;;5001497;28;20473;-64
2024/01/17 08:23:28;;;;;;;41.70;18.73;;;3.00;99.90;;;;;;4999668;28;20480;-63
2024/01/17 08:25:56;;;;;;;38.27;19.00;;;3.10;99.90;;;;;;5016015;28;20481;-65
2024/01/17 08:28:23;;;;;;;27.97;16.80;;;3.10;99.90;;;;;;5010033;28;20511;-63
2024/01/17 08:30:50;;;;;;;30.47;18.03;;;3.20;99.90;;;;;;5015535;28;20563;-64
2024/01/17 08:33:17;;;;;;;34.40;19.87;;;3.20;99.90;;;;;;4983455;28;20481;-64
2024/01/17 08:35:44;;;;;;;71.87;20.43;;;3.20;99.90;;;;;;5014092;28;20518;-65
2024/01/17 08:38:11;;;;;;;34.03;19.67;;;3.30;99.90;;;;;;5011955;28;20489;-64
2024/01/17 08:40:38;;;;;;;32.03;17.83;;;3.20;99.90;;;;;;5015610;28;21075;-63
2024/01/17 08:43:06;;;;;;;35.43;19.77;;;3.30;99.90;;;;;;4998532;28;20485;-62
2024/01/17 08:45:33;;;;;;;38.33;21.07;;;3.40;99.90;;;;;;4996891;28;21566;-65
2024/01/17 08:48:01;;;;;;;32.80;19.20;;;3.40;99.90;;;;;;4988846;28;20484;-64
2024/01/17 08:50:31;;;;;;;36.90;19.43;;;3.50;99.90;;;;;;5001628;28;20480;-62
2024/01/17 08:52:58;;;;;;;32.07;19.23;;;3.50;99.90;;;;;;4978201;28;20493;-63
2024/01/17 08:55:24;;;;;;;30.73;19.13;;;3.50;99.90;;;;;;5007977;28;20485;-63
2024/01/17 08:57:51;;;;;;;32.10;18.03;;;3.60;99.90;;;;;;5018393;28;20519;-62
2024/01/17 09:00:20;;;;;;;30.43;17.57;;;3.60;99.90;;;;;;4998030;28;20908;-64
2024/01/17 09:02:47;;;;;;;26.80;18.10;;;3.60;99.90;;;;;;5012524;28;20485;-64
2024/01/17 09:05:14;;;;;;;37.07;18.70;;;3.50;99.90;;;;;;4983149;28;20759;-64
2024/01/17 09:07:43;;;;;;;28.10;17.63;;;3.50;99.90;;;;;;4989394;28;20489;-63
2024/01/17 09:10:13;;;;;;;40.63;18.13;;;3.60;99.90;;;;;;4985296;28;20472;-66
2024/01/17 09:12:39;;;;;;;32.63;18.90;;;3.60;99.90;;;;;;5013444;28;20480;-66
2024/01/17 09:15:07;;;;;;;29.17;17.67;;;3.70;99.90;;;;;;5014311;28;20568;-67
2024/01/17 09:17:35;;;;;;;32.97;21.80;;;3.70;99.90;;;;;;5015182;28;20464;-67
2024/01/17 09:20:04;;;;;;;30.87;19.07;;;3.50;99.90;;;;;;4979203;28;20489;-68
2024/01/17 09:22:31;;;;;;;44.93;21.50;;;3.50;99.90;;;;;;5009400;28;20542;-68
2024/01/17 09:25:00;;;;;;;37.77;20.97;;;3.60;99.90;;;;;;5012659;28;20496;-69
2024/01/17 09:27:27;;;;;;;38.30;21.43;;;3.70;99.90;;;;;;5013021;28;20843;-69
2024/01/17 09:29:54;;;;;;;35.07;19.80;;;3.70;99.90;;;;;;5002002;28;20542;-69
2024/01/17 09:32:21;;;;;;;34.83;19.73;;;3.70;99.90;;;;;;5009954;28;20473;-69
2024/01/17 09:34:49;;;;;;;37.37;21.50;;;3.80;99.90;;;;;;5014247;28;20488;-70
2024/01/17 09:37:16;;;;;;;34.87;20.33;;;3.80;99.90;;;;;;5014275;28;20472;-69
2024/01/17 09:39:43;;;;;;;28.70;16.83;;;3.90;99.90;;;;;;5009188;28;20492;-68
2024/01/17 09:42:11;;;;;;;30.47;18.70;;;3.70;99.90;;;;;;5009838;28;20542;-70
2024/01/17 09:44:38;;;;;;;31.10;18.30;;;3.70;99.90;;;;;;5011940;28;20812;-69
2024/01/17 09:47:06;;;;;;;27.07;17.30;;;3.70;99.90;;;;;;4977350;28;20536;-71
2024/01/17 09:49:33;;;;;;;32.60;19.67;;;3.80;99.90;;;;;;5000839;28;21428;-70
2024/01/17 09:52:05;;;;;;;32.00;16.83;;;3.80;99.90;;;;;;4968591;28;20477;-70
2024/01/17 09:54:37;;;;;;;32.23;18.43;;;3.80;99.90;;;;;;5009895;28;20489;-69
2024/01/17 09:57:08;;;;;;;25.87;16.87;;;4.00;99.90;;;;;;5006557;28;21293;-70
2024/01/17 09:59:40;;;;;;;26.33;18.17;;;4.10;99.90;;;;;;5011333;28;20484;-70
2024/01/17 10:02:07;;;;;;;26.10;17.23;;;4.10;99.90;;;;;;5001421;28;20526;-69
2024/01/17 10:04:35;;;;;;;27.67;17.00;;;4.10;99.90;;;;;;4978670;28;20505;-68
2024/01/17 10:07:03;;;;;;;27.73;17.83;;;4.20;99.90;;;;;;5004722;28;20484;-68
2024/01/17 10:09:31;;;;;;;27.70;17.13;;;4.20;99.90;;;;;;5017178;28;20534;-67
2024/01/17 10:11:59;;;;;;;44.57;18.17;;;4.20;99.90;;;;;;5016320;28;20496;-68
2024/01/17 10:14:26;;;;;;;32.27;18.30;;;4.30;99.90;;;;;;5016242;28;21126;-67
2024/01/17 10:16:53;;;;;;;39.73;22.10;;;4.30;99.90;;;;;;5018642;28;21288;-67
2024/01/17 10:19:20;;;;;;;38.03;22.13;;;4.30;99.90;;;;;;4993565;28;20484;-67
2024/01/17 10:21:49;;;;;;;45.03;24.77;;;4.30;99.90;;;;;;5014555;28;20519;-67
2024/01/17 10:24:18;;;;;;;40.03;25.43;;;4.40;99.90;;;;;;4992213;28;20478;-67
2024/01/17 10:26:45;;;;;;;43.63;25.13;;;4.40;99.90;;;;;;4992038;28;20550;-68
2024/01/17 10:29:12;;;;;;;47.60;26.43;;;4.40;99.90;;;;;;5003775;28;20509;-67
2024/01/17 10:31:40;;;;;;;46.77;24.83;;;;;;;;;;5011725;28;20633;-68
2024/01/17 10:34:08;;;;;;;56.17;31.73;;;4.40;99.90;;;;;;5015037;28;20538;-68
2024/01/17 10:36:35;;;;;;;42.40;27.73;;;4.40;99.90;;;;;;5011786;28;20476;-67
2024/01/17 10:39:04;;;;;;;54.10;32.27;;;4.40;99.90;;;;;;5002636;28;20484;-67
2024/01/17 10:41:32;;;;;;;66.60;32.43;;;4.40;99.90;;;;;;5009863;28;20512;-68
2024/01/17 10:44:03;;;;;;;60.73;32.00;;;4.30;99.90;;;;;;4993305;28;20510;-68
2024/01/17 10:46:33;;;;;;;76.63;38.70;;;4.40;99.90;;;;;;5014072;28;20484;-68
2024/01/17 10:48:59;;;;;;;71.67;41.30;;;4.40;99.90;;;;;;5003101;28;20512;-68
2024/01/17 10:51:26;;;;;;;76.63;38.47;;;4.40;99.90;;;;;;5016177;28;20487;-68
2024/01/17 10:53:55;;;;;;;48.53;28.83;;;4.40;99.90;;;;;;4981748;28;20540;-69
2024/01/17 10:56:23;;;;;;;42.90;24.57;;;;;;;;;;4999871;28;20933;-68
2024/01/17 10:58:52;;;;;;;44.80;24.37;;;4.40;99.90;;;;;;5008261;28;20489;-68
2024/01/17 11:01:32;;;;;;;34.13;20.70;;;4.40;99.90;;;;;;5014326;28;20481;-68
2024/01/17 11:04:06;;;;;;;47.60;29.70;;;4.40;99.90;;;;;;5016024;28;20578;-68
2024/01/17 11:06:33;;;;;;;42.60;25.80;;;4.40;99.90;;;;;;4983786;28;20511;-68
2024/01/17 11:09:01;;;;;;;47.77;25.67;;;4.40;99.90;;;;;;5000103;28;20496;-68
2024/01/17 11:11:30;;;;;;;45.00;27.70;;;4.40;99.90;;;;;;5002411;28;20493;-68
2024/01/17 11:13:59;;;;;;;47.83;24.00;;;4.50;99.90;;;;;;5012615;28;20846;-68
2024/01/17 11:16:26;;;;;;;43.70;27.63;;;4.50;99.90;;;;;;4992002;28;20953;-67
2024/01/17 11:18:54;;;;;;;38.53;22.33;;;4.50;99.90;;;;;;4998318;28;20619;-68
2024/01/17 11:21:23;;;;;;;59.37;30.87;;;4.50;99.90;;;;;;5013306;28;20539;-68
2024/01/17 11:23:59;;;;;;;59.97;31.10;;;4.40;99.90;;;;;;5015525;28;20530;-68
2024/01/17 11:26:32;;;;;;;44.07;25.93;;;4.30;99.90;;;;;;5013493;28;20480;-70
2024/01/17 11:29:10;;;;;;;45.70;23.60;;;4.20;99.90;;;;;;5012103;28;20484;-69
2024/01/17 11:31:44;;;;;;;51.90;29.13;;;4.20;99.90;;;;;;5009510;28;20497;-69
2024/01/17 11:34:12;;;;;;;49.17;29.03;;;4.30;99.90;;;;;;5013555;28;20791;-68
2024/01/17 11:36:44;;;;;;;71.70;34.57;;;4.30;99.90;;;;;;5014353;28;20477;-68
2024/01/17 11:39:12;;;;;;;49.50;31.73;;;4.40;99.90;;;;;;5012874;28;20473;-68
2024/01/17 11:41:39;;;;;;;60.83;24.07;;;4.40;99.90;;;;;;5000798;28;21212;-69
2024/01/17 11:44:08;;;;;;;36.70;20.00;;;4.50;99.90;;;;;;4982845;28;20481;-68
2024/01/17 11:46:35;;;;;;;28.07;18.23;;;4.50;99.90;;;;;;4955645;28;20481;-69
2024/01/17 11:49:04;;;;;;;26.60;17.23;;;4.50;99.90;;;;;;4993564;28;21034;-67
2024/01/17 11:51:33;;;;;;;29.30;19.50;;;4.50;99.90;;;;;;5005328;28;20716;-68
2024/01/17 11:54:02;;;;;;;67.47;31.37;;;4.50;99.90;;;;;;5009848;28;20527;-68
2024/01/17 11:56:29;;;;;;;63.77;33.40;;;4.30;99.90;;;;;;5009036;28;21055;-68
2024/01/17 11:58:59;;;;;;;65.80;31.53;;;4.30;99.90;;;;;;5007984;28;20692;-68
2024/01/17 12:01:41;;;;;;;53.17;31.57;;;4.30;99.90;;;;;;5009205;28;20481;-68
2024/01/17 12:04:14;;;;;;;66.37;31.43;;;4.40;99.90;;;;;;5009475;28;20927;-68
2024/01/17 12:06:42;;;;;;;57.63;30.20;;;4.40;99.90;;;;;;4986330;28;20558;-68
2024/01/17 12:09:17;;;;;;;54.50;28.67;;;4.50;99.90;;;;;;4998670;28;20667;-68
2024/01/17 12:11:46;;;;;;;42.17;23.30;;;4.40;99.90;;;;;;5011378;28;20538;-68
2024/01/17 12:14:13;;;;;;;34.20;22.00;;;4.50;99.90;;;;;;5003906;28;21056;-68
2024/01/17 12:16:42;;;;;;;46.20;26.93;;;4.50;99.90;;;;;;5002256;28;20492;-68
2024/01/17 12:19:10;;;;;;;46.93;28.87;;;4.50;99.90;;;;;;4998814;28;20943;-68
2024/01/17 12:21:37;;;;;;;47.77;28.53;;;4.40;99.90;;;;;;5010190;28;20547;-68
2024/01/17 12:24:05;;;;;;;48.20;25.90;;;4.40;99.90;;;;;;5013194;28;20546;-68
2024/01/17 12:26:34;;;;;;;47.53;24.30;;;4.40;99.90;;;;;;5008348;28;20583;-67
2024/01/17 12:29:08;;;;;;;41.30;23.10;;;4.20;99.90;;;;;;4972242;28;20477;-67
2024/01/17 12:31:35;;;;;;;33.83;21.40;;;4.10;99.90;;;;;;4994827;28;20575;-67
2024/01/17 12:34:06;;;;;;;28.43;17.90;;;3.90;99.90;;;;;;4996943;28;20480;-67
2024/01/17 12:36:35;;;;;;;29.30;18.63;;;3.80;99.90;;;;;;4974172;28;20517;-67
2024/01/17 12:39:04;;;;;;;38.87;22.70;;;3.80;99.90;;;;;;5006400;28;20484;-67